createdAt,value
2022-12-20T00:00:22.307Z,11.80
2022-12-20T00:03:15.314Z,12.80
2022-12-20T00:05:49.192Z,12.80
2022-12-20T00:08:22.030Z,13.00
2022-12-20T00:10:55.262Z,12.60
2022-12-20T00:13:28.481Z,12.00
2022-12-20T00:16:11.921Z,12.00
2022-12-20T00:18:45.235Z,11.70
2022-12-20T00:21:18.931Z,12.10
2022-12-20T00:23:52.905Z,11.90
2022-12-20T00:26:29.798Z,11.30
2022-12-20T00:29:03.501Z,10.90
2022-12-20T00:31:36.926Z,11.50
2022-12-20T00:34:10.805Z,12.50
2022-12-20T00:36:44.362Z,11.60
2022-12-20T00:39:17.250Z,10.50
2022-12-20T00:41:50.583Z,12.00
2022-12-20T00:44:23.718Z,11.70
2022-12-20T00:46:56.926Z,10.40
2022-12-20T00:49:29.851Z,10.60
2022-12-20T00:52:02.871Z,12.60
2022-12-20T00:54:36.190Z,11.40
2022-12-20T00:57:09.110Z,10.30
2022-12-20T00:59:42.061Z,11.20
2022-12-20T01:02:15.390Z,12.50
2022-12-20T01:04:49.899Z,11.00
2022-12-20T01:07:23.598Z,9.90
2022-12-20T01:09:56.851Z,10.50
2022-12-20T01:12:29.726Z,10.30
2022-12-20T01:15:02.608Z,10.80
2022-12-20T01:17:35.642Z,9.50
2022-12-20T01:20:10.814Z,10.60
2022-12-20T01:22:47.445Z,11.80
2022-12-20T01:25:22.159Z,11.60
2022-12-20T01:27:55.225Z,9.20
2022-12-20T01:30:28.238Z,12.20
2022-12-20T01:33:02.692Z,11.70
2022-12-20T01:35:35.638Z,13.40
2022-12-20T01:38:08.815Z,10.70
2022-12-20T01:40:43.262Z,11.90
2022-12-20T01:43:19.002Z,11.60
2022-12-20T01:45:52.879Z,12.30
2022-12-20T01:48:28.594Z,12.50
2022-12-20T01:51:01.613Z,10.60
2022-12-20T01:53:34.790Z,11.00
2022-12-20T01:56:10.219Z,12.80
2022-12-20T01:58:43.507Z,9.60
2022-12-20T02:01:16.566Z,11.80
2022-12-20T02:03:50.414Z,11.40
2022-12-20T02:06:26.067Z,10.60
2022-12-20T02:09:02.931Z,10.20
2022-12-20T02:12:07.266Z,10.30
2022-12-20T02:15:02.390Z,12.80
2022-12-20T02:17:48.862Z,10.10
2022-12-20T02:20:59.234Z,9.70
2022-12-20T02:24:09.629Z,10.10
2022-12-20T02:27:27.251Z,9.00
2022-12-20T02:30:11.284Z,10.90
2022-12-20T02:32:53.664Z,9.80
2022-12-20T02:35:29.927Z,11.80
2022-12-20T02:38:05.951Z,10.10
2022-12-20T02:40:44.627Z,11.70
2022-12-20T02:43:31.576Z,12.10
2022-12-20T02:46:05.868Z,10.00
2022-12-20T02:48:41.171Z,11.30
2022-12-20T02:51:15.843Z,11.80
2022-12-20T02:53:48.941Z,11.00
2022-12-20T02:56:29.511Z,12.10
2022-12-20T02:59:08.803Z,10.00
2022-12-20T03:01:46.846Z,10.00
2022-12-20T03:04:22.158Z,11.70
2022-12-20T03:07:08.752Z,11.50
2022-12-20T03:09:45.189Z,10.70
2022-12-20T03:12:19.698Z,11.30
2022-12-20T03:14:52.548Z,11.90
2022-12-20T03:17:25.506Z,11.30
2022-12-20T03:19:58.888Z,11.70
2022-12-20T03:22:32.050Z,10.20
2022-12-20T03:25:05.488Z,9.50
2022-12-20T03:27:38.868Z,11.80
2022-12-20T03:30:14.322Z,10.20
2022-12-20T03:32:47.492Z,11.50
2022-12-20T03:35:21.158Z,12.00
2022-12-20T03:37:54.104Z,10.70
2022-12-20T03:40:27.167Z,10.90
2022-12-20T03:43:00.363Z,11.20
2022-12-20T03:45:33.234Z,10.60
2022-12-20T03:48:06.252Z,10.20
2022-12-20T03:50:39.523Z,10.70
2022-12-20T03:53:14.290Z,11.10
2022-12-20T03:55:47.224Z,11.10
2022-12-20T03:58:20.518Z,10.90
2022-12-20T04:00:53.768Z,11.80
2022-12-20T04:03:47.497Z,9.70
2022-12-20T04:06:21.872Z,11.10
2022-12-20T04:08:54.687Z,10.60
2022-12-20T04:11:32.134Z,8.60
2022-12-20T04:14:12.084Z,10.20
2022-12-20T04:16:45.181Z,10.70
2022-12-20T04:19:19.180Z,11.50
2022-12-20T04:21:52.747Z,10.30
2022-12-20T04:24:25.882Z,10.30
2022-12-20T04:27:07.164Z,10.60
2022-12-20T04:29:40.091Z,11.50
2022-12-20T04:32:13.890Z,10.10
2022-12-20T04:34:46.792Z,11.70
2022-12-20T04:37:20.259Z,11.00
2022-12-20T04:39:57.219Z,12.10
2022-12-20T04:42:45.310Z,11.10
2022-12-20T04:45:19.024Z,11.80
2022-12-20T04:47:52.176Z,12.40
2022-12-20T04:50:29.113Z,12.60
2022-12-20T04:53:19.565Z,11.60
2022-12-20T04:55:53.132Z,11.90
2022-12-20T04:58:26.143Z,11.60
2022-12-20T05:00:59.180Z,10.70
2022-12-20T05:03:33.236Z,11.60
2022-12-20T05:06:06.537Z,11.80
2022-12-20T05:08:40.087Z,11.10
2022-12-20T05:11:13.718Z,11.10
2022-12-20T05:13:46.747Z,11.10
2022-12-20T05:16:22.161Z,14.20
2022-12-20T05:18:55.163Z,12.80
2022-12-20T05:21:45.413Z,12.60
2022-12-20T05:24:36.274Z,13.00
2022-12-20T05:27:30.746Z,12.40
2022-12-20T05:30:04.425Z,11.90
2022-12-20T05:32:38.189Z,10.80
2022-12-20T05:35:12.264Z,13.90
2022-12-20T05:37:45.662Z,12.70
2022-12-20T05:40:22.547Z,13.20
2022-12-20T05:42:56.220Z,14.10
2022-12-20T05:45:34.004Z,13.10
2022-12-20T05:48:09.348Z,12.40
2022-12-20T05:50:45.475Z,11.10
2022-12-20T05:53:31.243Z,11.90
2022-12-20T05:56:05.930Z,13.60
2022-12-20T05:58:41.368Z,13.30
2022-12-20T06:01:15.014Z,13.50
2022-12-20T06:03:51.298Z,12.60
2022-12-20T06:06:24.701Z,12.80
2022-12-20T06:08:58.453Z,15.60
2022-12-20T06:12:01.491Z,12.40
2022-12-20T06:14:35.450Z,13.10
2022-12-20T06:17:08.420Z,13.80
2022-12-20T06:19:41.733Z,12.60
2022-12-20T06:22:16.484Z,13.90
2022-12-20T06:24:53.881Z,12.70
2022-12-20T06:27:31.451Z,12.10
2022-12-20T06:30:19.445Z,14.50
2022-12-20T06:33:12.916Z,14.80
2022-12-20T06:35:45.849Z,13.00
2022-12-20T06:38:20.296Z,14.30
2022-12-20T06:40:53.560Z,14.50
2022-12-20T06:43:27.097Z,14.20
2022-12-20T06:46:00.395Z,13.90
2022-12-20T06:48:33.838Z,16.00
2022-12-20T06:51:07.086Z,15.50
2022-12-20T06:53:39.997Z,11.00
2022-12-20T06:56:13.376Z,13.70
2022-12-20T06:58:46.776Z,14.10
2022-12-20T07:01:19.946Z,13.40
2022-12-20T07:03:53.015Z,12.60
2022-12-20T07:06:27.188Z,14.70
2022-12-20T07:09:00.260Z,15.90
2022-12-20T07:11:33.470Z,13.60
2022-12-20T07:14:06.590Z,11.60
2022-12-20T07:16:41.753Z,14.30
2022-12-20T07:19:16.242Z,13.00
2022-12-20T07:21:50.463Z,14.60
2022-12-20T07:24:23.494Z,13.60
2022-12-20T07:26:58.951Z,13.90
2022-12-20T07:29:32.172Z,13.90
2022-12-20T07:32:05.343Z,14.80
2022-12-20T07:34:39.532Z,14.70
2022-12-20T07:37:12.401Z,14.70
2022-12-20T07:39:45.234Z,13.00
2022-12-20T07:42:18.987Z,15.40
2022-12-20T07:44:55.153Z,13.40
2022-12-20T07:47:28.305Z,15.50
2022-12-20T07:50:01.337Z,15.00
2022-12-20T07:52:36.064Z,14.80
2022-12-20T07:55:12.281Z,14.10
2022-12-20T07:57:49.409Z,13.30
2022-12-20T08:00:23.364Z,15.30
2022-12-20T08:03:01.475Z,13.10
2022-12-20T08:05:36.627Z,14.00
2022-12-20T08:08:10.825Z,13.60
2022-12-20T08:10:43.712Z,14.80
2022-12-20T08:13:16.985Z,13.50
2022-12-20T08:15:50.022Z,15.30
2022-12-20T08:18:23.042Z,13.30
2022-12-20T08:20:56.189Z,14.50
2022-12-20T08:23:29.247Z,14.90
2022-12-20T08:26:04.867Z,15.30
2022-12-20T08:28:37.808Z,16.60
2022-12-20T08:31:12.963Z,16.80
2022-12-20T08:33:46.008Z,12.80
2022-12-20T08:36:18.864Z,13.80
2022-12-20T08:38:51.697Z,16.00
2022-12-20T08:41:25.414Z,14.50
2022-12-20T08:43:58.524Z,14.40
2022-12-20T08:46:32.048Z,13.90
2022-12-20T08:49:05.254Z,15.20
2022-12-20T08:51:38.370Z,14.90
2022-12-20T08:54:11.271Z,13.10
2022-12-20T08:56:44.173Z,13.70
2022-12-20T08:59:17.103Z,13.60
2022-12-20T09:01:50.844Z,14.40
2022-12-20T09:04:23.937Z,15.40
2022-12-20T09:06:56.773Z,14.80
2022-12-20T09:09:29.958Z,12.00
2022-12-20T09:12:02.891Z,13.70
2022-12-20T09:14:35.850Z,14.60
2022-12-20T09:17:08.730Z,15.20
2022-12-20T09:19:41.663Z,14.50
2022-12-20T09:22:14.802Z,14.70
2022-12-20T09:24:47.876Z,15.90
2022-12-20T09:27:20.872Z,14.20
2022-12-20T09:29:54.004Z,14.90
2022-12-20T09:32:27.091Z,15.20
2022-12-20T09:35:00.189Z,15.10
2022-12-20T09:37:36.145Z,14.90
2022-12-20T09:40:19.136Z,16.20
2022-12-20T09:42:53.511Z,15.10
2022-12-20T09:45:34.515Z,17.80
2022-12-20T09:48:10.415Z,16.30
2022-12-20T09:50:53.813Z,16.10
2022-12-20T09:53:39.289Z,14.30
2022-12-20T09:56:20.176Z,16.30
2022-12-20T09:59:06.241Z,15.80
2022-12-20T10:01:40.672Z,15.50
2022-12-20T10:04:24.198Z,18.10
2022-12-20T10:07:20.943Z,15.40
2022-12-20T10:10:19.521Z,14.60
2022-12-20T10:13:06.856Z,15.00
2022-12-20T10:15:45.403Z,15.00
2022-12-20T10:18:37.640Z,15.30
2022-12-20T10:21:21.093Z,15.00
2022-12-20T10:24:02.768Z,16.10
2022-12-20T10:26:36.966Z,13.80
2022-12-20T10:29:10.163Z,13.40
2022-12-20T10:31:43.716Z,15.30
2022-12-20T10:34:17.034Z,15.90
2022-12-20T10:37:11.655Z,17.30
2022-12-20T10:39:52.008Z,16.40
2022-12-20T10:42:41.065Z,16.30
2022-12-20T10:45:36.266Z,16.50
2022-12-20T10:48:30.623Z,16.70
2022-12-20T10:51:16.174Z,13.60
2022-12-20T10:54:01.404Z,15.00
2022-12-20T10:56:36.596Z,15.20
2022-12-20T10:59:34.721Z,17.80
2022-12-20T11:02:39.292Z,14.90
2022-12-20T11:05:27.982Z,16.50
2022-12-20T11:11:20.056Z,14.80
2022-12-20T11:13:55.046Z,15.70
2022-12-20T11:16:41.823Z,16.70
2022-12-20T11:19:47.443Z,19.00
2022-12-20T11:22:40.817Z,16.50
2022-12-20T11:25:38.314Z,15.40
2022-12-20T11:28:33.279Z,15.70
2022-12-20T11:31:17.614Z,17.40
2022-12-20T11:34:24.199Z,15.10
2022-12-20T11:37:10.858Z,14.80
2022-12-20T11:40:00.927Z,14.90
2022-12-20T11:42:48.837Z,16.70
2022-12-20T11:45:33.492Z,16.80
2022-12-20T11:48:47.763Z,17.80
2022-12-20T11:51:27.258Z,16.70
2022-12-20T11:54:06.857Z,15.20
2022-12-20T11:56:45.263Z,16.80
2022-12-20T11:59:26.917Z,17.40
2022-12-20T12:02:10.596Z,17.60
2022-12-20T12:04:48.575Z,15.60
2022-12-20T12:07:25.888Z,18.30
2022-12-20T12:10:03.707Z,16.80
2022-12-20T12:12:44.051Z,17.50
2022-12-20T12:15:29.912Z,15.80
2022-12-20T12:18:09.217Z,16.30
2022-12-20T12:20:55.083Z,16.40
2022-12-20T12:23:37.270Z,16.60
2022-12-20T12:26:26.091Z,14.80
2022-12-20T12:29:02.510Z,17.40
2022-12-20T12:31:41.155Z,16.70
2022-12-20T12:34:29.667Z,16.30
2022-12-20T12:37:44.762Z,16.70
2022-12-20T12:41:03.590Z,17.20
2022-12-20T12:43:55.105Z,16.80
2022-12-20T12:46:32.650Z,17.10
2022-12-20T12:49:11.715Z,16.70
2022-12-20T12:51:57.226Z,16.60
2022-12-20T12:54:37.074Z,18.10
2022-12-20T12:57:15.897Z,18.10
2022-12-20T12:59:52.027Z,16.20
2022-12-20T13:02:51.298Z,16.00
2022-12-20T13:05:39.198Z,14.40
2022-12-20T13:08:20.636Z,16.60
2022-12-20T13:11:05.326Z,14.30
2022-12-20T13:13:38.544Z,15.90
2022-12-20T13:17:09.527Z,15.40
2022-12-20T13:19:38.662Z,14.30
2022-12-20T13:22:25.653Z,15.60
2022-12-20T13:25:03.158Z,13.90
2022-12-20T13:27:39.418Z,13.70
2022-12-20T13:30:30.827Z,14.40
2022-12-20T13:33:43.685Z,15.80
2022-12-20T13:36:39.368Z,14.20
2022-12-20T13:39:38.368Z,15.70
2022-12-20T13:42:29.380Z,13.60
2022-12-20T13:45:05.731Z,15.60
2022-12-20T13:47:49.791Z,15.40
2022-12-20T13:50:35.768Z,14.50
2022-12-20T13:53:17.414Z,16.30
2022-12-20T13:55:51.035Z,15.90
2022-12-20T13:58:26.791Z,14.40
2022-12-20T14:01:07.924Z,14.70
2022-12-20T14:03:50.037Z,15.50
2022-12-20T14:06:27.138Z,14.70
2022-12-20T14:09:00.730Z,16.00
2022-12-20T14:11:33.854Z,14.10
2022-12-20T14:14:14.186Z,14.50
2022-12-20T14:16:47.258Z,15.30
2022-12-20T14:19:20.293Z,17.70
2022-12-20T14:21:53.453Z,13.60
2022-12-20T14:24:26.624Z,16.00
2022-12-20T14:27:00.902Z,15.10
2022-12-20T14:29:35.097Z,15.90
2022-12-20T14:32:18.641Z,14.40
2022-12-20T14:34:52.211Z,18.10
2022-12-20T14:37:34.625Z,16.20
2022-12-20T14:40:21.728Z,15.00
2022-12-20T14:42:54.770Z,15.70
2022-12-20T14:45:30.195Z,15.30
2022-12-20T14:48:16.788Z,15.20
2022-12-20T14:50:56.932Z,14.70
2022-12-20T14:53:30.638Z,13.70
2022-12-20T14:56:04.126Z,11.50
2022-12-20T14:58:38.103Z,15.20
2022-12-20T15:01:27.324Z,14.10
2022-12-20T15:04:02.468Z,14.00
2022-12-20T15:06:45.041Z,13.70
2022-12-20T15:09:18.579Z,14.20
2022-12-20T15:11:52.909Z,16.40
2022-12-20T15:14:36.985Z,14.00
2022-12-20T15:17:13.683Z,14.30
2022-12-20T15:19:47.303Z,14.60
2022-12-20T15:22:21.906Z,14.80
2022-12-20T15:24:54.994Z,15.70
2022-12-20T15:27:27.996Z,14.00
2022-12-20T15:30:01.102Z,15.30
2022-12-20T15:32:34.116Z,14.30
2022-12-20T15:35:13.776Z,13.80
2022-12-20T15:37:46.775Z,15.20
2022-12-20T15:40:19.962Z,14.20
2022-12-20T15:42:54.557Z,12.80
2022-12-20T15:45:28.537Z,15.80
2022-12-20T15:48:01.530Z,15.20
2022-12-20T15:50:34.311Z,17.40
2022-12-20T15:53:07.627Z,16.10
2022-12-20T15:55:40.635Z,15.70
2022-12-20T15:58:13.834Z,16.00
2022-12-20T16:00:47.597Z,16.20
2022-12-20T16:03:23.744Z,19.20
2022-12-20T16:05:57.207Z,19.10
2022-12-20T16:08:30.998Z,16.70
2022-12-20T16:11:04.018Z,15.50
2022-12-20T16:13:37.007Z,15.80
2022-12-20T16:16:15.341Z,15.10
2022-12-20T16:18:48.637Z,14.40
2022-12-20T16:21:25.520Z,14.10
2022-12-20T16:23:58.965Z,15.60
2022-12-20T16:26:32.128Z,14.70
2022-12-20T16:29:05.408Z,14.50
2022-12-20T16:31:42.329Z,15.30
2022-12-20T16:34:18.895Z,14.50
2022-12-20T16:36:52.428Z,15.40
2022-12-20T16:39:25.367Z,15.90
2022-12-20T16:41:58.481Z,16.90
2022-12-20T16:44:31.512Z,15.20
2022-12-20T16:47:04.634Z,17.40
2022-12-20T16:49:38.089Z,15.60
2022-12-20T16:52:18.165Z,15.60
2022-12-20T16:54:51.465Z,16.30
2022-12-20T16:57:24.580Z,15.00
2022-12-20T16:59:57.740Z,15.20
2022-12-20T17:02:34.884Z,14.70
2022-12-20T17:05:13.346Z,18.20
2022-12-20T17:07:46.362Z,16.60
2022-12-20T17:10:19.650Z,12.70
2022-12-20T17:12:53.607Z,15.30
2022-12-20T17:15:30.194Z,17.10
2022-12-20T17:18:03.240Z,14.90
2022-12-20T17:20:37.100Z,14.70
2022-12-20T17:23:16.181Z,14.20
2022-12-20T17:25:54.163Z,13.60
2022-12-20T17:28:27.720Z,12.80
2022-12-20T17:31:07.775Z,13.70
2022-12-20T17:36:13.794Z,13.80
2022-12-20T17:38:49.696Z,14.10
2022-12-20T17:41:31.161Z,14.00
2022-12-20T17:44:06.046Z,15.80
2022-12-20T17:46:39.155Z,14.80
2022-12-20T17:49:12.183Z,14.80
2022-12-20T17:51:45.457Z,14.10
2022-12-20T17:54:24.294Z,15.40
2022-12-20T17:56:57.828Z,14.40
2022-12-20T17:59:30.991Z,16.00
2022-12-20T18:02:04.167Z,16.00
2022-12-20T18:04:37.337Z,15.70
2022-12-20T18:07:11.176Z,13.70
2022-12-20T18:09:44.305Z,15.60
2022-12-20T18:12:17.675Z,13.90
2022-12-20T18:14:52.707Z,16.60
2022-12-20T18:17:25.894Z,14.40
2022-12-20T18:19:58.972Z,13.70
2022-12-20T18:22:34.068Z,14.80
2022-12-20T18:25:14.028Z,13.90
2022-12-20T18:27:47.550Z,14.20
2022-12-20T18:30:20.963Z,14.20
2022-12-20T18:32:54.024Z,15.50
2022-12-20T18:35:27.384Z,14.30
2022-12-20T18:38:00.406Z,15.80
2022-12-20T18:40:33.393Z,13.30
2022-12-20T18:43:06.660Z,14.50
2022-12-20T18:45:40.223Z,13.00
2022-12-20T18:48:13.315Z,16.20
2022-12-20T18:50:46.308Z,15.00
2022-12-20T18:53:19.254Z,15.70
2022-12-20T18:55:52.257Z,15.60
2022-12-20T18:58:25.767Z,16.70
2022-12-20T19:01:02.487Z,15.20
2022-12-20T19:03:36.133Z,13.80
2022-12-20T19:06:10.825Z,14.10
2022-12-20T19:08:44.079Z,13.80
2022-12-20T19:11:19.239Z,16.40
2022-12-20T19:13:52.406Z,14.60
2022-12-20T19:16:28.249Z,15.50
2022-12-20T19:19:02.090Z,14.70
2022-12-20T19:21:37.692Z,16.20
2022-12-20T19:24:12.007Z,14.60
2022-12-20T19:26:45.564Z,17.60
2022-12-20T19:29:18.634Z,16.50
2022-12-20T19:31:51.730Z,15.30
2022-12-20T19:34:24.909Z,15.40
2022-12-20T19:36:57.943Z,17.10
2022-12-20T19:39:31.671Z,15.30
2022-12-20T19:42:24.133Z,13.50
2022-12-20T19:44:57.670Z,16.20
2022-12-20T19:47:33.324Z,14.90
2022-12-20T19:50:08.797Z,12.90
2022-12-20T19:52:41.917Z,16.40
2022-12-20T19:55:14.966Z,14.40
2022-12-20T19:57:47.973Z,15.50
2022-12-20T20:00:22.555Z,15.80
2022-12-20T20:02:55.719Z,16.20
2022-12-20T20:05:28.959Z,15.30
2022-12-20T20:08:02.049Z,18.90
2022-12-20T20:10:35.439Z,15.80
2022-12-20T20:13:08.676Z,14.70
2022-12-20T20:15:41.693Z,15.20
2022-12-20T20:18:14.846Z,15.80
2022-12-20T20:20:47.844Z,14.50
2022-12-20T20:23:20.877Z,15.80
2022-12-20T20:25:57.990Z,16.40
2022-12-20T20:28:33.944Z,16.30
2022-12-20T20:31:12.129Z,12.90
2022-12-20T20:33:45.827Z,13.70
2022-12-20T20:36:21.131Z,14.50
2022-12-20T20:38:55.192Z,13.90
2022-12-20T20:41:28.272Z,14.70
2022-12-20T20:44:01.585Z,14.70
2022-12-20T20:46:34.885Z,14.50
2022-12-20T20:49:08.072Z,14.30
2022-12-20T20:51:41.580Z,14.40
2022-12-20T20:54:14.585Z,15.50
2022-12-20T20:56:47.553Z,15.10
2022-12-20T20:59:21.859Z,14.40
2022-12-20T21:01:55.130Z,15.10
2022-12-20T21:04:28.345Z,13.40
2022-12-20T21:07:01.506Z,15.20
2022-12-20T21:09:34.954Z,15.70
2022-12-20T21:12:08.742Z,14.60
2022-12-20T21:15:20.117Z,14.70
2022-12-20T21:17:35.611Z,14.60
2022-12-20T21:20:10.726Z,12.80
2022-12-20T21:22:43.726Z,13.60
2022-12-20T21:25:17.424Z,14.70
2022-12-20T21:27:50.374Z,15.60
2022-12-20T21:30:23.630Z,15.60
2022-12-20T21:32:56.688Z,14.90
2022-12-20T21:35:29.779Z,12.80
2022-12-20T21:38:03.643Z,15.10
2022-12-20T21:40:36.769Z,14.30
2022-12-20T21:43:09.766Z,14.90
2022-12-20T21:45:42.691Z,12.90
2022-12-20T21:48:15.776Z,14.00
2022-12-20T21:50:48.796Z,14.20
2022-12-20T21:53:21.815Z,14.80
2022-12-20T21:55:57.832Z,13.70
2022-12-20T21:58:32.307Z,14.50
2022-12-20T22:01:08.517Z,15.50
2022-12-20T22:03:42.150Z,14.40
2022-12-20T22:06:15.318Z,15.50
2022-12-20T22:08:48.595Z,13.60
2022-12-20T22:11:22.024Z,14.20
2022-12-20T22:13:57.729Z,12.90
2022-12-20T22:16:34.969Z,13.90
2022-12-20T22:19:09.101Z,14.70
2022-12-20T22:21:42.429Z,14.80
2022-12-20T22:24:16.041Z,14.00
2022-12-20T22:26:49.463Z,12.70
2022-12-20T22:29:22.433Z,14.30
2022-12-20T22:31:55.523Z,12.60
2022-12-20T22:34:29.195Z,14.10
2022-12-20T22:37:02.173Z,14.00
2022-12-20T22:39:35.227Z,14.80
2022-12-20T22:42:08.434Z,14.70
2022-12-20T22:44:41.395Z,13.50
2022-12-20T22:47:14.441Z,16.00
2022-12-20T22:49:47.644Z,12.80
2022-12-20T22:52:21.838Z,15.00
2022-12-20T22:54:55.101Z,12.20
2022-12-20T22:57:28.953Z,12.20
2022-12-20T23:00:02.030Z,13.20
2022-12-20T23:02:35.402Z,18.30
2022-12-20T23:05:09.546Z,14.30
2022-12-20T23:07:42.913Z,13.10
2022-12-20T23:10:29.891Z,14.10
2022-12-20T23:13:20.388Z,14.30
2022-12-20T23:15:53.582Z,13.00
2022-12-20T23:18:26.670Z,17.20
2022-12-20T23:21:18.169Z,14.20
2022-12-20T23:23:55.912Z,15.50
2022-12-20T23:26:29.441Z,13.20
2022-12-20T23:29:04.234Z,14.60
2022-12-20T23:31:37.725Z,15.90
2022-12-20T23:34:10.936Z,15.10
2022-12-20T23:36:44.039Z,15.40
2022-12-20T23:39:17.147Z,14.70
2022-12-20T23:41:50.190Z,14.20
2022-12-20T23:44:23.395Z,13.90
2022-12-20T23:46:56.412Z,15.90
2022-12-20T23:49:29.498Z,14.30
2022-12-20T23:52:02.662Z,15.60
2022-12-20T23:54:35.834Z,15.90
2022-12-20T23:57:08.911Z,19.00
2022-12-20T23:59:41.918Z,16.50
